Time;durP1;ratioP1;P1;durP2;ratioP2;P2;SDS_P1;SDS_P2;PMS_P1;PMS_P2;Temp;Humidity;BMP_temperature;BMP_pressure;BME280_temperature;BME280_humidity;BME280_pressure;Samples;Min_cycle;Max_cycle;Signal;HPM_P1;HPM_P2
2022/11/18 00:01:48;;;;;;;14.23;10.78;;;;;;;0.03;79.71;99231.37;1633999;86;21284;-61
2022/11/18 00:04:56;;;;;;;13.50;9.90;;;;;;;0.00;79.57;99233.51;1634112;86;21208;-60
2022/11/18 00:08:01;;;;;;;13.90;9.18;;;;;;;-0.04;79.46;99242.82;1634050;86;21260;-61
2022/11/18 00:14:17;;;;;;;14.20;10.10;;;;;;;-0.11;79.42;99252.41;1633993;88;21220;-59
2022/11/18 00:14:27;;;;;;;13.88;9.95;;;;;;;-0.16;79.40;99254.69;1655508;86;21298;-59
2022/11/18 00:17:34;;;;;;;15.80;10.68;;;;;;;-0.20;79.42;99251.41;1655400;86;21234;-59
2022/11/18 00:20:42;;;;;;;14.55;10.05;;;;;;;-0.19;79.55;99264.37;1655787;86;21795;-61
2022/11/18 00:23:48;;;;;;;14.70;9.93;;;;;;;-0.15;79.55;99265.30;1655424;86;21321;-60
2022/11/18 00:26:56;;;;;;;13.20;9.40;;;;;;;-0.15;79.54;99265.30;1655377;85;21270;-60
2022/11/18 00:30:02;;;;;;;13.90;9.45;;;;;;;-0.16;79.51;99263.58;1655449;85;21739;-60
2022/11/18 00:33:09;;;;;;;13.03;9.43;;;;;;;-0.10;79.66;99250.09;1655377;86;21309;-59
2022/11/18 00:36:17;;;;;;;14.47;10.38;;;;;;;-0.02;79.72;99252.95;1655096;86;21322;-60
2022/11/18 00:39:25;;;;;;;15.55;11.03;;;;;;;0.00;79.64;99250.98;1655450;86;21443;-59
2022/11/18 00:45:57;;;;;;;15.43;10.85;;;;;;;-0.04;79.47;99233.41;1655030;85;21330;-61
2022/11/18 00:49:04;;;;;;;13.38;8.98;;;;;;;-0.07;79.41;99225.62;1655370;86;21422;-60
2022/11/18 00:52:11;;;;;;;15.15;10.43;;;;;;;-0.15;79.33;99251.86;1655596;86;21270;-60
2022/11/18 00:55:17;;;;;;;15.43;10.10;;;;;;;-0.17;79.39;99243.55;1655304;86;21393;-60
2022/11/18 00:58:22;;;;;;;15.55;10.03;;;;;;;-0.20;79.33;99245.17;1655408;86;21211;-60
2022/11/18 01:01:29;;;;;;;16.65;11.40;;;;;;;-0.23;79.38;99254.37;1655121;85;21254;-59
2022/11/18 01:04:36;;;;;;;15.53;10.23;;;;;;;-0.17;79.49;99261.03;1655171;86;21246;-61
2022/11/18 01:07:41;;;;;;;14.78;10.75;;;;;;;-0.17;79.54;99262.37;1655339;86;21210;-61
2022/11/18 01:10:48;;;;;;;15.20;10.43;;;;;;;-0.14;79.54;99261.61;1655682;86;21457;-60
2022/11/18 01:13:58;;;;;;;14.53;10.75;;;;;;;-0.10;79.59;99264.89;1646909;84;21268;-59
2022/11/18 01:17:04;;;;;;;14.80;10.30;;;;;;;-0.07;79.59;99259.23;1627079;88;21256;-60
2022/11/18 01:20:11;;;;;;;15.13;11.57;;;;;;;-0.07;79.49;99267.30;1627079;88;21288;-60
2022/11/18 01:23:17;;;;;;;15.13;10.40;;;;;;;-0.11;79.41;99269.41;1627096;87;21237;-60
2022/11/18 01:26:24;;;;;;;15.98;10.10;;;;;;;-0.14;79.36;99279.58;1612951;88;21252;-60
2022/11/18 01:29:30;;;;;;;13.32;9.65;;;;;;;-0.17;79.36;99283.40;1627084;87;21193;-59
2022/11/18 01:32:30;;;;;;;13.62;9.70;;;;;;;-0.13;79.47;99279.95;1611371;88;21277;-60
2022/11/18 01:35:37;;;;;;;13.25;10.18;;;;;;;-0.10;79.49;99281.02;1627016;87;21248;-60
2022/11/18 01:38:43;;;;;;;14.38;9.55;;;;;;;-0.08;79.43;99280.41;1627054;88;21201;-59
2022/11/18 01:41:49;;;;;;;13.93;9.60;;;;;;;-0.10;79.39;99283.23;1627007;87;21349;-61
2022/11/18 01:45:22;;;;;;;14.47;10.23;;;;;;;-0.11;79.37;99297.64;1612070;88;21265;-60
2022/11/18 01:48:40;;;;;;;12.73;9.50;;;;;;;-0.08;79.40;99320.73;1627151;88;21297;-59
2022/11/18 01:51:55;;;;;;;13.72;9.28;;;;;;;0.01;79.54;99315.89;1621291;87;21257;-60
2022/11/18 01:54:59;;;;;;;15.05;10.75;;;;;;;0.04;79.44;99311.58;1627944;87;21225;-59
2022/11/18 01:58:15;;;;;;;16.20;11.05;;;;;;;0.03;79.38;99327.37;1627011;87;21577;-60
2022/11/18 02:01:21;;;;;;;14.78;9.68;;;;;;;0.02;79.38;99344.98;1627063;88;21244;-60
2022/11/18 02:04:27;;;;;;;15.35;10.88;;;;;;;0.00;79.35;99338.41;1627121;87;21305;-60
2022/11/18 02:07:34;;;;;;;15.13;10.20;;;;;;;-0.05;79.31;99345.50;1627056;88;21272;-60
2022/11/18 02:10:41;;;;;;;14.23;10.13;;;;;;;-0.08;79.27;99342.25;1626978;88;21244;-61
2022/11/18 02:13:47;;;;;;;16.48;10.35;;;;;;;-0.11;79.29;99359.50;1627005;87;21260;-58
2022/11/18 02:17:15;;;;;;;13.22;9.90;;;;;;;-0.11;79.33;99364.01;1626941;87;21229;-60
2022/11/18 02:20:39;;;;;;;12.93;9.68;;;;;;;-0.12;79.32;99360.97;1627030;87;21289;-59
2022/11/18 02:24:13;;;;;;;13.25;9.30;;;;;;;-0.13;79.28;99364.66;1615385;89;21222;-60
2022/11/18 02:27:40;;;;;;;15.23;11.03;;;;;;;-0.16;79.29;99368.45;1586059;89;21276;-60
2022/11/18 02:30:52;;;;;;;16.80;10.53;;;;;;;-0.14;79.40;99388.48;1627956;87;21261;-59
2022/11/18 02:34:08;;;;;;;13.70;10.00;;;;;;;-0.11;79.39;99388.21;1627096;87;21281;-59
2022/11/18 02:37:34;;;;;;;15.83;10.90;;;;;;;-0.09;79.43;99399.22;1614726;88;21292;-59
2022/11/18 02:40:43;;;;;;;14.23;9.60;;;;;;;-0.08;79.42;99398.22;1627892;87;21297;-59
2022/11/18 02:43:58;;;;;;;14.68;10.25;;;;;;;-0.03;79.50;99407.23;1626976;88;21256;-59
2022/11/18 02:47:07;;;;;;;13.58;10.00;;;;;;;0.03;79.54;99411.23;1620685;88;21301;-59
2022/11/18 02:50:19;;;;;;;15.43;10.65;;;;;;;0.04;79.55;99415.14;1627340;87;21338;-59
2022/11/18 02:53:27;;;;;;;14.15;10.05;;;;;;;0.14;79.67;99419.22;1627185;87;21265;-61
2022/11/18 02:56:32;;;;;;;15.45;10.48;;;;;;;0.17;79.56;99418.47;1626961;87;21213;-60
2022/11/18 02:59:40;;;;;;;14.58;9.73;;;;;;;0.17;79.45;99427.88;1627114;87;21217;-59
2022/11/18 03:02:56;;;;;;;13.88;9.55;;;;;;;0.11;79.34;99427.56;1627097;87;21297;-59
2022/11/18 03:06:36;;;;;;;15.75;10.85;;;;;;;0.10;79.35;99433.91;1627079;87;21636;-60
2022/11/18 03:09:47;;;;;;;15.58;10.43;;;;;;;0.14;79.45;99436.23;1637804;86;21296;-59
2022/11/18 03:13:11;;;;;;;15.08;10.85;;;;;;;0.10;79.32;99442.84;1596100;89;21223;-59
2022/11/18 03:16:23;;;;;;;17.90;10.88;;;;;;;0.12;79.38;99435.98;1605952;82;21349;-59
2022/11/18 03:19:46;;;;;;;13.60;10.35;;;;;;;0.11;79.34;99443.22;1645661;87;21212;-59
2022/11/18 03:23:16;;;;;;;15.08;10.38;;;;;;;0.13;79.35;99438.53;1617098;88;21282;-61
2022/11/18 03:26:30;;;;;;;14.65;9.00;;;;;;;0.15;79.38;99435.23;1616608;88;21317;-59
2022/11/18 03:29:42;;;;;;;12.68;9.63;;;;;;;0.14;79.35;99441.61;1617365;88;21246;-60
2022/11/18 03:32:50;;;;;;;12.05;9.08;;;;;;;0.14;79.35;99439.40;1599813;88;21234;-60
2022/11/18 03:35:56;;;;;;;14.25;10.05;;;;;;;0.12;79.24;99443.57;1615986;87;21337;-60
2022/11/18 03:39:06;;;;;;;14.30;9.28;;;;;;;0.12;79.22;99440.02;1614883;87;21392;-60
2022/11/18 03:42:33;;;;;;;15.60;10.50;;;;;;;0.11;79.16;99443.22;1645515;87;21263;-59
2022/11/18 03:45:55;;;;;;;15.60;10.60;;;;;;;0.08;79.11;99459.60;1617500;88;21242;-59
2022/11/18 03:49:02;;;;;;;14.30;10.45;;;;;;;0.04;79.12;99470.28;1615641;88;21290;-60
2022/11/18 03:52:23;;;;;;;16.15;10.50;;;;;;;0.04;79.21;99479.70;1616702;87;21400;-60
2022/11/18 03:55:33;;;;;;;15.08;10.25;;;;;;;0.02;79.15;99484.86;1616398;88;21257;-59
2022/11/18 03:58:47;;;;;;;15.03;10.18;;;;;;;-0.02;79.17;99490.98;1617812;87;21246;-59
2022/11/18 04:02:10;;;;;;;16.05;10.68;;;;;;;-0.04;79.13;99490.25;1645649;86;21271;-61
2022/11/18 04:05:18;;;;;;;13.50;9.58;;;;;;;-0.09;79.09;99495.17;1645787;86;21240;-60
2022/11/18 04:08:30;;;;;;;16.50;11.10;;;;;;;-0.15;79.10;99498.39;1646127;87;21280;-61
2022/11/18 04:15:07;;;;;;;15.83;9.50;;;;;;;-0.21;79.11;99508.33;1615918;88;21354;-59
2022/11/18 04:18:14;;;;;;;14.68;10.40;;;;;;;-0.27;79.17;99516.91;1633358;83;21227;-61
2022/11/18 04:21:20;;;;;;;15.23;10.65;;;;;;;-0.32;79.18;99519.13;1617103;88;21294;-60
2022/11/18 04:24:27;;;;;;;17.90;12.10;;;;;;;-0.33;79.26;99532.19;1616687;87;21234;-62
2022/11/18 04:27:32;;;;;;;17.07;11.12;;;;;;;-0.31;79.34;99540.99;1645473;86;21235;-62
2022/11/18 04:30:38;;;;;;;16.45;11.25;;;;;;;-0.28;79.45;99540.73;1595080;87;21241;-64
2022/11/18 04:33:43;;;;;;;18.85;11.85;;;;;;;-0.23;79.54;99544.76;1617933;88;21290;-61
2022/11/18 04:36:49;;;;;;;36.15;20.00;;;;;;;-0.18;79.62;99539.85;1645560;87;21280;-63
2022/11/18 04:39:56;;;;;;;35.45;17.82;;;;;;;-0.14;79.58;99541.77;1645804;86;21227;-63
2022/11/18 04:43:02;;;;;;;23.02;13.88;;;;;;;-0.09;79.63;99558.37;1616166;88;21251;-63
2022/11/18 04:46:08;;;;;;;21.80;11.73;;;;;;;-0.04;79.63;99562.40;1615689;88;21257;-63
2022/11/18 04:49:17;;;;;;;18.02;11.78;;;;;;;0.04;79.69;99572.50;1615527;88;21222;-63
2022/11/18 04:52:22;;;;;;;18.30;11.48;;;;;;;0.13;79.69;99564.98;1617166;88;22029;-62
2022/11/18 04:55:28;;;;;;;15.72;11.15;;;;;;;0.19;79.59;99563.11;1615833;88;21234;-62
2022/11/18 04:58:35;;;;;;;17.73;11.63;;;;;;;0.25;79.48;99571.17;1645171;87;21308;-63
2022/11/18 05:01:41;;;;;;;18.90;12.53;;;;;;;0.32;79.44;99579.09;1645008;86;21208;-62
2022/11/18 05:04:47;;;;;;;20.95;12.85;;;;;;;0.41;79.42;99582.33;1645763;87;21302;-62
2022/11/18 05:07:53;;;;;;;17.87;11.50;;;;;;;0.50;79.41;99585.09;1645755;87;21210;-61
2022/11/18 05:14:25;;;;;;;19.85;12.95;;;;;;;0.64;79.31;99591.47;1616378;88;21363;-60
2022/11/18 05:17:33;;;;;;;19.15;12.78;;;;;;;0.73;79.35;99606.83;1605641;88;21303;-62
2022/11/18 05:20:40;;;;;;;19.73;12.47;;;;;;;0.75;79.12;99601.30;1619206;87;21247;-62
2022/11/18 05:23:48;;;;;;;26.45;15.25;;;;;;;0.76;78.99;99602.52;1618885;88;21268;-62
2022/11/18 05:26:54;;;;;;;23.05;13.70;;;;;;;0.81;78.97;99607.53;1618841;87;21307;-61
2022/11/18 05:30:01;;;;;;;24.82;14.10;;;;;;;0.84;78.93;99613.48;1618861;88;21236;-61
2022/11/18 05:33:08;;;;;;;25.32;16.07;;;;;;;0.85;78.87;99619.25;1618840;88;21227;-61
2022/11/18 05:36:15;;;;;;;25.10;16.30;;;;;;;0.89;78.79;99626.05;1618815;87;21287;-62
2022/11/18 05:39:22;;;;;;;23.35;14.13;;;;;;;0.95;78.83;99633.59;1607927;87;21291;-63
2022/11/18 05:45:53;;;;;;;24.70;14.95;;;;;;;1.12;78.91;99633.48;1637571;86;21271;-62
2022/11/18 05:49:00;;;;;;;27.95;16.67;;;;;;;1.17;78.77;99646.06;1635519;86;21231;-62
2022/11/18 05:52:07;;;;;;;27.30;15.35;;;;;;;1.17;78.56;99652.80;1659803;84;21370;-62
2022/11/18 05:55:13;;;;;;;27.77;16.42;;;;;;;1.21;78.56;99649.70;1627330;86;22137;-63
2022/11/18 05:58:19;;;;;;;25.70;15.25;;;;;;;1.26;78.48;99660.07;1572998;91;21265;-62
2022/11/18 06:01:31;;;;;;;30.60;18.52;;;;;;;1.32;78.50;99660.88;1572705;90;21786;-62
2022/11/18 06:04:56;;;;;;;27.07;15.85;;;;;;;1.37;78.50;99667.58;1572542;91;21894;-63
2022/11/18 06:08:02;;;;;;;25.30;15.45;;;;;;;1.44;78.49;99672.77;1588548;88;21234;-62
2022/11/18 06:11:07;;;;;;;26.90;14.45;;;;;;;1.48;78.48;99678.27;1578267;88;21873;-63
2022/11/18 06:14:33;;;;;;;25.32;14.73;;;;;;;1.50;78.30;99689.78;1586644;90;21246;-64
2022/11/18 06:17:52;;;;;;;25.25;15.13;;;;;;;1.52;78.22;99686.43;1578138;91;21263;-63
2022/11/18 06:21:01;;;;;;;22.80;14.60;;;;;;;1.60;78.36;99686.26;1561657;85;21264;-63
2022/11/18 06:24:08;;;;;;;24.77;15.15;;;;;;;1.70;78.41;99693.90;1575423;90;21257;-63
2022/11/18 06:27:15;;;;;;;22.77;14.13;;;;;;;1.66;78.07;99709.98;1594053;90;21318;-63
2022/11/18 06:30:22;;;;;;;28.02;15.83;;;;;;;1.57;77.98;99704.06;1594363;90;21274;-63
2022/11/18 06:33:29;;;;;;;22.82;15.63;;;;;;;1.51;77.94;99696.00;1578136;90;21238;-64
2022/11/18 06:36:36;;;;;;;23.32;15.25;;;;;;;1.46;77.89;99708.55;1579099;90;21796;-64
2022/11/18 06:39:44;;;;;;;23.45;15.43;;;;;;;1.48;77.94;99713.80;1583642;89;21280;-63
2022/11/18 06:49:43;;;;;;;25.90;17.52;;;;;;;1.73;78.17;99734.92;1610172;88;21680;-63
2022/11/18 06:52:50;;;;;;;20.70;14.20;;;;;;;1.78;78.09;99734.02;1617673;87;21801;-64
2022/11/18 06:55:56;;;;;;;21.20;14.20;;;;;;;1.86;78.01;99741.42;1621302;87;21239;-64
2022/11/18 06:59:02;;;;;;;21.68;14.98;;;;;;;1.90;77.98;99745.57;1618916;87;21808;-65
2022/11/18 07:02:09;;;;;;;26.07;15.15;;;;;;;1.88;77.82;99738.97;1565513;91;21274;-64
2022/11/18 07:05:15;;;;;;;22.25;13.58;;;;;;;1.93;77.80;99753.39;1590168;89;21243;-66
2022/11/18 07:08:27;;;;;;;22.95;14.60;;;;;;;1.96;77.80;99747.72;1573899;90;21228;-65
2022/11/18 07:11:33;;;;;;;21.50;15.10;;;;;;;2.06;77.83;99755.36;1568952;90;21593;-65
2022/11/18 07:14:40;;;;;;;19.30;12.78;;;;;;;2.15;77.75;99754.52;1566013;91;21238;-63
2022/11/18 07:17:46;;;;;;;20.55;13.50;;;;;;;2.22;77.58;99749.77;1566185;90;21261;-66
2022/11/18 07:20:56;;;;;;;19.82;12.35;;;;;;;2.24;77.46;99744.23;1565412;90;21814;-65
2022/11/18 07:24:03;;;;;;;19.15;12.73;;;;;;;2.30;77.34;99756.69;1574959;89;21264;-65
2022/11/18 07:27:09;;;;;;;17.10;12.07;;;;;;;2.35;77.20;99753.56;1622491;85;21432;-66
2022/11/18 07:30:16;;;;;;;15.58;10.98;;;;;;;2.44;77.11;99756.80;1605070;89;21339;-66
2022/11/18 07:33:23;;;;;;;16.57;11.00;;;;;;;2.53;77.03;99755.95;1605452;88;21212;-66
2022/11/18 07:36:33;;;;;;;19.37;13.22;;;;;;;2.57;76.84;99761.44;1613473;87;21243;-64
2022/11/18 07:39:39;;;;;;;19.80;13.28;;;;;;;2.64;76.94;99762.08;1641234;86;21394;-66
2022/11/18 07:42:47;;;;;;;19.87;13.32;;;;;;;2.77;76.99;99755.05;1644238;86;21311;-65
2022/11/18 07:45:52;;;;;;;16.32;10.70;;;;;;;2.81;76.75;99765.91;1639359;86;21676;-65
2022/11/18 07:48:59;;;;;;;18.60;11.45;;;;;;;2.90;76.72;99778.59;1606214;89;21752;-63
2022/11/18 07:52:15;;;;;;;18.05;11.97;;;;;;;2.89;76.63;99783.62;1605829;89;22152;-63
2022/11/18 07:55:25;;;;;;;15.32;11.00;;;;;;;2.88;76.45;99800.84;1606296;89;21246;-63
2022/11/18 07:58:32;;;;;;;16.48;11.18;;;;;;;2.87;76.37;99806.73;1606072;88;21223;-64
2022/11/18 08:01:38;;;;;;;15.90;11.03;;;;;;;2.82;76.24;99811.70;1606265;88;21416;-64
2022/11/18 08:04:47;;;;;;;14.18;9.30;;;;;;;2.82;76.25;99809.00;1606633;89;21313;-63
2022/11/18 08:07:55;;;;;;;13.62;10.30;;;;;;;2.84;76.32;99822.38;1585023;89;21245;-63
2022/11/18 08:11:09;;;;;;;14.05;9.60;;;;;;;2.88;76.40;99816.58;1632931;87;21306;-64
2022/11/18 08:14:14;;;;;;;13.85;10.25;;;;;;;2.86;76.24;99827.15;1637284;86;21729;-65
2022/11/18 08:17:21;;;;;;;16.45;10.85;;;;;;;2.90;76.14;99831.30;1630386;86;21258;-63
2022/11/18 08:20:27;;;;;;;13.75;8.85;;;;;;;2.91;76.04;99831.16;1643612;87;21621;-62
2022/11/18 08:23:33;;;;;;;20.00;11.08;;;;;;;2.94;75.93;99832.70;1652580;82;21767;-64
2022/11/18 08:26:44;;;;;;;14.80;10.15;;;;;;;3.00;75.99;99836.19;1651632;84;21227;-64
2022/11/18 08:29:50;;;;;;;13.75;9.45;;;;;;;3.17;76.10;99835.52;1641353;87;21233;-65
2022/11/18 08:32:58;;;;;;;15.30;10.25;;;;;;;3.33;76.10;99839.81;1615166;89;21284;-65
2022/11/18 08:36:16;;;;;;;13.30;9.53;;;;;;;3.44;75.92;99846.95;1585067;89;21452;-66
2022/11/18 08:39:24;;;;;;;12.25;9.25;;;;;;;3.57;75.78;99851.05;1585110;90;21267;-65
2022/11/18 08:42:31;;;;;;;11.93;8.75;;;;;;;3.68;75.59;99860.35;1593894;88;21265;-65
2022/11/18 08:45:38;;;;;;;12.60;8.88;;;;;;;3.69;75.36;99868.84;1642129;86;21227;-66
2022/11/18 08:48:45;;;;;;;12.60;7.87;;;;;;;3.62;75.22;99875.83;1636432;87;21355;-66
2022/11/18 08:51:50;;;;;;;17.95;10.55;;;;;;;3.61;75.21;99875.97;1651832;85;21339;-64
2022/11/18 08:54:59;;;;;;;18.17;11.00;;;;;;;3.62;75.26;99883.94;1643970;85;21361;-65
2022/11/18 08:58:07;;;;;;;16.75;10.55;;;;;;;3.63;75.34;99888.34;1571017;90;21844;-65
2022/11/18 09:01:16;;;;;;;13.72;9.08;;;;;;;3.65;75.46;99893.61;1586506;88;21384;-62
2022/11/18 09:04:26;;;;;;;13.43;9.63;;;;;;;3.63;75.33;99891.05;1593967;88;21295;-61
2022/11/18 09:07:40;;;;;;;12.58;8.50;;;;;;;3.66;75.39;99911.58;1594300;88;21816;-62
2022/11/18 09:10:47;;;;;;;14.00;9.30;;;;;;;3.76;75.45;99905.66;1593864;89;21251;-61
2022/11/18 09:14:07;;;;;;;14.38;9.68;;;;;;;3.88;75.40;99901.78;1594106;88;21282;-65
2022/11/18 09:17:15;;;;;;;11.65;9.05;;;;;;;3.91;75.25;99905.55;1614024;87;21766;-66
2022/11/18 09:20:22;;;;;;;12.35;8.13;;;;;;;3.96;75.12;99914.96;1614746;89;21285;-66
2022/11/18 09:23:30;;;;;;;14.78;8.60;;;;;;;3.96;74.92;99919.03;1594327;86;21292;-66
2022/11/18 09:26:38;;;;;;;12.40;7.92;;;;;;;3.98;74.73;99925.64;1604348;88;21376;-65
2022/11/18 09:29:44;;;;;;;14.55;9.53;;;;;;;4.02;74.68;99940.59;1603784;88;21592;-65
2022/11/18 09:32:51;;;;;;;12.47;8.83;;;;;;;4.07;74.81;99939.17;1578362;90;21284;-66
2022/11/18 09:36:01;;;;;;;14.50;9.48;;;;;;;4.11;74.93;99943.28;1562855;90;21364;-65
2022/11/18 09:39:07;;;;;;;11.78;8.65;;;;;;;4.18;75.01;99945.77;1578365;89;21312;-65
2022/11/18 09:42:22;;;;;;;12.82;9.83;;;;;;;4.25;74.96;99948.75;1601564;88;21878;-63
2022/11/18 09:45:41;;;;;;;12.93;9.68;;;;;;;4.27;75.01;99954.85;1578312;91;21312;-61
2022/11/18 09:52:20;;;;;;;11.68;8.38;;;;;;;4.23;74.91;99977.31;1577850;89;22190;-63
2022/11/18 09:55:29;;;;;;;12.85;8.50;;;;;;;4.23;74.89;99972.41;1577718;90;22134;-63
2022/11/18 09:58:41;;;;;;;12.95;9.28;;;;;;;4.21;74.78;99980.69;1578856;89;21240;-62
2022/11/18 10:01:47;;;;;;;12.40;9.08;;;;;;;4.20;74.56;99992.50;1577616;90;21699;-63
2022/11/18 10:04:53;;;;;;;13.38;9.30;;;;;;;4.06;74.11;99992.95;1582959;88;21325;-64
2022/11/18 10:08:32;;;;;;;12.75;10.20;;;;;;;3.97;74.16;99992.48;1578704;90;21820;-64
2022/11/18 10:11:58;;;;;;;18.65;11.68;;;;;;;3.99;74.17;99998.61;1577632;91;21283;-68
2022/11/18 10:15:22;;;;;;;14.83;9.93;;;;;;;4.09;74.35;99999.44;1577380;91;21251;-65
2022/11/18 10:18:48;;;;;;;15.13;10.03;;;;;;;4.21;74.63;100002.36;1599151;89;21805;-63
2022/11/18 10:22:09;;;;;;;15.72;11.30;;;;;;;4.25;74.66;100009.18;1602289;88;21271;-63
2022/11/18 10:25:22;;;;;;;13.30;10.65;;;;;;;4.19;74.41;100021.09;1589760;84;21268;-64
2022/11/18 10:28:35;;;;;;;13.80;9.10;;;;;;;4.02;74.37;100013.70;1572691;91;21251;-64
2022/11/18 10:31:42;;;;;;;14.05;9.20;;;;;;;3.98;74.52;100015.83;1597173;88;21818;-64
2022/11/18 10:34:57;;;;;;;23.02;15.50;;;;;;;4.10;74.68;100021.97;1567779;90;21864;-65
2022/11/18 10:38:11;;;;;;;13.15;9.73;;;;;;;4.25;74.85;100023.25;1608666;88;21310;-65
2022/11/18 10:41:22;;;;;;;16.93;10.35;;;;;;;4.33;74.71;100018.80;1598139;88;21337;-64
2022/11/18 10:44:46;;;;;;;14.00;9.18;;;;;;;4.39;74.62;100016.85;1598523;88;21233;-62
2022/11/18 10:48:05;;;;;;;13.45;9.25;;;;;;;4.51;74.61;100027.90;1588464;88;21825;-65
2022/11/18 10:51:15;;;;;;;13.70;9.68;;;;;;;4.53;74.39;100029.94;1602336;88;21608;-64
2022/11/18 10:54:30;;;;;;;16.05;9.43;;;;;;;4.57;74.40;100034.08;1596804;88;21803;-65
2022/11/18 10:57:38;;;;;;;12.63;9.25;;;;;;;4.51;73.95;100035.16;1577574;89;21254;-65
2022/11/18 11:00:53;;;;;;;12.37;8.70;;;;;;;4.42;73.75;100036.87;1579043;87;21899;-63
2022/11/18 11:04:29;;;;;;;14.55;9.25;;;;;;;4.41;73.79;100041.95;1615192;86;21242;-64
2022/11/18 11:07:42;;;;;;;12.05;8.80;;;;;;;4.37;73.76;100041.05;1615824;87;21244;-66
2022/11/18 11:10:50;;;;;;;11.90;9.03;;;;;;;4.33;73.78;100024.22;1621913;87;21867;-65
2022/11/18 11:13:56;;;;;;;13.20;9.85;;;;;;;4.39;73.83;100023.63;1612241;87;21215;-64
2022/11/18 11:17:20;;;;;;;10.82;8.18;;;;;;;4.37;73.66;100024.30;1588408;89;21368;-63
2022/11/18 11:20:30;;;;;;;15.18;10.25;;;;;;;4.27;73.53;100032.06;1595757;87;21318;-66
2022/11/18 11:23:37;;;;;;;11.93;8.65;;;;;;;4.12;73.32;100045.70;1610668;89;22139;-61
2022/11/18 11:27:04;;;;;;;13.83;8.65;;;;;;;4.06;73.44;100043.05;1602588;82;21278;-62
2022/11/18 11:30:23;;;;;;;14.07;8.50;;;;;;;4.12;73.53;100052.48;1612494;87;21233;-62
2022/11/18 11:33:45;;;;;;;11.95;8.60;;;;;;;4.15;73.51;100060.31;1613230;87;21317;-64
2022/11/18 11:37:29;;;;;;;11.15;7.70;;;;;;;4.23;73.78;100059.09;1612583;87;21631;-63
2022/11/18 11:40:43;;;;;;;13.83;8.78;;;;;;;4.29;73.68;100062.58;1613456;87;21273;-62
2022/11/18 11:44:12;;;;;;;12.23;8.93;;;;;;;4.31;73.71;100060.07;1613819;87;21300;-62
2022/11/18 11:47:48;;;;;;;15.13;8.45;;;;;;;4.39;73.80;100061.56;1610685;88;21511;-63
2022/11/18 11:51:04;;;;;;;14.98;9.33;;;;;;;4.39;73.60;100054.78;1591025;90;21831;-62
2022/11/18 11:54:43;;;;;;;13.00;9.13;;;;;;;4.34;73.54;100059.78;1649477;85;21219;-63
2022/11/18 11:58:33;;;;;;;11.35;8.60;;;;;;;4.41;73.77;100066.83;1648628;86;21279;-62
2022/11/18 12:02:06;;;;;;;12.20;8.98;;;;;;;4.46;73.87;100067.26;1651798;85;21235;-62
2022/11/18 12:05:38;;;;;;;12.10;8.33;;;;;;;4.39;73.85;100082.41;1647372;85;21199;-62
2022/11/18 12:09:07;;;;;;;12.20;8.75;;;;;;;4.33;73.96;100090.59;1642055;85;21259;-61
2022/11/18 12:12:49;;;;;;;12.50;9.38;;;;;;;4.27;73.84;100088.47;1623530;85;21252;-61
2022/11/18 12:16:36;;;;;;;13.65;10.38;;;;;;;4.15;73.38;100090.11;1614775;88;21228;-61
2022/11/18 12:19:44;;;;;;;17.27;10.68;;;;;;;4.06;73.29;100089.09;1582658;89;22137;-62
2022/11/18 12:23:19;;;;;;;15.15;10.63;;;;;;;4.09;73.52;100096.09;1583199;89;21275;-62
2022/11/18 12:26:42;;;;;;;16.55;11.22;;;;;;;4.11;73.78;100101.72;1580963;86;21233;-62
2022/11/18 12:30:00;;;;;;;16.48;11.53;;;;;;;4.10;73.74;100098.66;1569851;91;21249;-61
2022/11/18 12:33:06;;;;;;;19.48;12.35;;;;;;;4.04;73.68;100097.84;1592194;87;21288;-61
2022/11/18 12:36:12;;;;;;;16.00;10.35;;;;;;;3.98;73.52;100112.48;1581327;89;21840;-61
2022/11/18 12:39:38;;;;;;;19.40;10.48;;;;;;;3.84;73.37;100112.38;1631635;86;21209;-61
2022/11/18 12:46:09;;;;;;;14.90;10.38;;;;;;;3.65;73.50;100111.47;1618109;88;21773;-61
2022/11/18 12:49:35;;;;;;;15.40;10.70;;;;;;;3.61;73.66;100102.80;1630032;86;21232;-61
2022/11/18 12:52:47;;;;;;;14.87;10.78;;;;;;;3.62;73.80;100099.08;1641732;86;21249;-61
2022/11/18 12:55:53;;;;;;;14.95;10.50;;;;;;;3.56;73.68;100101.00;1648611;86;21804;-61
2022/11/18 12:59:04;;;;;;;14.38;10.30;;;;;;;3.51;73.59;100108.66;1620218;86;21229;-62
2022/11/18 13:02:25;;;;;;;14.23;10.03;;;;;;;3.43;73.59;100130.62;1622108;87;21255;-62
2022/11/18 13:05:37;;;;;;;17.20;11.60;;;;;;;3.40;73.69;100137.67;1625266;86;21196;-61
2022/11/18 13:08:44;;;;;;;19.48;12.45;;;;;;;3.40;73.92;100142.59;1629735;86;21333;-62
2022/11/18 13:12:03;;;;;;;18.27;11.75;;;;;;;3.39;74.09;100143.59;1639624;87;21257;-62
2022/11/18 13:18:36;;;;;;;18.52;10.40;;;;;;;3.28;73.98;100141.47;1632406;86;21275;-61
2022/11/18 13:25:09;;;;;;;21.27;11.03;;;;;;;3.11;73.77;100142.95;1637576;86;21208;-61
2022/11/18 13:28:47;;;;;;;20.27;10.65;;;;;;;3.02;73.81;100167.61;1608304;84;21815;-62
2022/11/18 13:32:30;;;;;;;19.15;11.73;;;;;;;2.93;73.79;100161.63;1634448;85;21291;-61
2022/11/18 13:35:35;;;;;;;17.10;11.33;;;;;;;2.85;73.90;100174.11;1638852;85;22058;-61
2022/11/18 13:38:43;;;;;;;27.75;16.15;;;;;;;2.72;73.81;100172.95;1635816;87;21224;-61
2022/11/18 13:41:49;;;;;;;34.50;22.37;;;;;;;2.59;73.87;100171.42;1647793;85;21348;-61
2022/11/18 13:45:06;;;;;;;30.88;19.65;;;;;;;2.59;74.14;100171.42;1649417;85;21243;-61
2022/11/18 13:48:15;;;;;;;22.00;13.90;;;;;;;2.59;74.22;100180.88;1626093;87;21764;-61
2022/11/18 13:51:23;;;;;;;20.97;13.05;;;;;;;2.57;74.25;100177.47;1641915;85;21295;-62
2022/11/18 13:54:31;;;;;;;28.42;17.52;;;;;;;2.52;74.28;100181.05;1644636;85;21215;-62
2022/11/18 13:57:38;;;;;;;27.65;17.82;;;;;;;2.50;74.30;100205.98;1644739;86;21211;-62
2022/11/18 14:00:44;;;;;;;22.98;15.10;;;;;;;2.43;74.30;100220.48;1658168;85;21252;-60
2022/11/18 14:04:00;;;;;;;22.90;14.28;;;;;;;2.36;74.20;100231.42;1646662;85;21338;-62
2022/11/18 14:07:32;;;;;;;22.20;13.90;;;;;;;2.32;74.24;100221.88;1643674;85;21634;-62
2022/11/18 14:10:46;;;;;;;21.60;13.38;;;;;;;2.29;74.40;100214.04;1671315;85;21933;-62
2022/11/18 14:13:57;;;;;;;24.12;14.70;;;;;;;2.28;74.44;100208.77;1635495;86;21801;-62
2022/11/18 14:17:28;;;;;;;28.83;15.10;;;;;;;2.28;74.57;100210.12;1646211;87;21287;-62
2022/11/18 14:20:36;;;;;;;24.63;15.25;;;;;;;2.29;74.70;100214.52;1641307;85;22088;-62
2022/11/18 14:23:42;;;;;;;24.95;14.55;;;;;;;2.31;74.82;100206.67;1642431;85;22077;-62
2022/11/18 14:26:51;;;;;;;27.52;16.02;;;;;;;2.34;74.79;100220.41;1648072;85;22201;-61
2022/11/18 14:29:58;;;;;;;19.87;12.25;;;;;;;2.35;74.75;100216.70;1638221;83;21584;-61
2022/11/18 14:33:27;;;;;;;19.80;13.55;;;;;;;2.31;74.62;100224.23;1635547;86;21250;-61
2022/11/18 14:36:34;;;;;;;21.75;13.68;;;;;;;2.25;74.50;100234.16;1596944;89;21247;-62
2022/11/18 14:39:40;;;;;;;18.80;12.10;;;;;;;2.17;74.53;100230.41;1639456;87;21635;-59
2022/11/18 14:42:47;;;;;;;20.37;14.28;;;;;;;2.16;74.59;100239.47;1639191;86;21216;-60
2022/11/18 14:45:55;;;;;;;19.60;14.28;;;;;;;2.12;74.59;100236.67;1655418;84;21227;-60
2022/11/18 14:49:01;;;;;;;24.02;14.68;;;;;;;2.11;74.69;100239.02;1639579;85;21242;-61
2022/11/18 14:52:10;;;;;;;19.12;12.78;;;;;;;2.11;74.75;100248.46;1637477;87;21259;-60
2022/11/18 14:55:17;;;;;;;20.80;13.22;;;;;;;2.07;74.61;100256.42;1631869;87;21284;-60
2022/11/18 14:58:23;;;;;;;19.15;13.03;;;;;;;1.98;74.54;100245.91;1626173;86;21231;-59
2022/11/18 15:01:28;;;;;;;25.77;15.83;;;;;;;1.95;74.66;100237.20;1639634;87;21235;-60
2022/11/18 15:04:34;;;;;;;26.75;16.42;;;;;;;1.94;74.72;100239.51;1624549;87;21208;-60
2022/11/18 15:07:40;;;;;;;28.02;17.52;;;;;;;1.92;74.74;100244.20;1638767;87;21280;-61
2022/11/18 15:10:46;;;;;;;24.27;15.75;;;;;;;1.91;74.72;100235.71;1636244;86;21251;-60
2022/11/18 15:13:50;;;;;;;24.60;15.50;;;;;;;1.90;74.77;100229.97;1650042;86;21251;-61
2022/11/18 15:16:57;;;;;;;23.00;14.68;;;;;;;1.91;74.78;100220.39;1640334;87;21247;-60
2022/11/18 15:20:03;;;;;;;23.07;15.70;;;;;;;1.92;74.75;100228.00;1638870;86;21641;-61
2022/11/18 15:23:10;;;;;;;32.90;20.25;;;;;;;1.94;74.77;100234.11;1599938;89;21270;-61
2022/11/18 15:26:37;;;;;;;34.83;21.30;;;;;;;1.97;74.82;100242.83;1610436;88;21238;-62